Teheran, Illinois
Current Conditions -  °F | °C
As of 4:35 AM on Thursday 25 Dec 2014 (Local Time) from KAAA Reporting Station
Overcast Overcast  
Wind Chill: 32°   Ceiling: 2100
Heat Index: 37°   Visibility: 10mi
Dew Point: 32°   Wind: 6mph
Humidity: 83%   Direction: 230°SW
Pressure: 29.9"   Gusts: NA
Location:  40.1812°N, 89.7163°W
Report Text: KAAA 251035Z AUTO 23005KT 10SM OVC021 03/00 A2990 RMK AO2 T00260000
Loading
Personal Weather Stations






























Interactive Weather Map New forecast layout! Learn more

10-Day Weather Forecast

Advertisements
Track Severe Weather on mobile